Time,TemperatureF,DewpointF,PressureIn,WindDirection,WindDirectionDegrees,WindSpeedMPH,WindSpeedGustMPH,Humidity,HourlyPrecipIn,Conditions,Clouds,dailyrainin,SoftwareType,DateUTC
2013-02-28 00:02:00,56.0,48.0,29.99,WNW,286,5.0,7.0,76,-99.99,,,-99.99,,2013-02-28 05:02:00,
2013-02-28 00:11:00,56.0,48.0,29.99,WNW,286,5.0,7.0,76,-99.99,,,-99.99,,2013-02-28 05:11:00,
2013-02-28 00:22:00,56.0,48.0,29.99,WNW,286,5.0,7.0,76,-99.99,,,-99.99,,2013-02-28 05:22:00,
2013-02-28 00:32:00,56.0,48.0,29.99,WNW,286,5.0,7.0,76,-99.99,,,-99.99,,2013-02-28 05:32:00,
2013-02-28 00:42:00,56.0,48.0,29.99,WNW,286,5.0,7.0,76,-99.99,,,-99.99,,2013-02-28 05:42:00,
2013-02-28 01:22:00,55.0,48.0,29.99,WNW,295,6.0,9.0,79,-99.99,,,-99.99,,2013-02-28 06:22:00,
2013-02-28 01:32:00,54.0,48.0,29.99,WNW,303,6.0,9.0,80,-99.99,,,-99.99,,2013-02-28 06:32:00,
2013-02-28 01:42:00,54.0,48.0,29.99,WNW,297,7.0,9.0,80,-99.99,,,-99.99,,2013-02-28 06:42:00,
2013-02-28 01:52:00,54.0,48.0,29.99,WNW,297,7.0,9.0,80,-99.99,,,-99.99,,2013-02-28 06:52:00,
2013-02-28 02:01:00,54.0,48.0,29.98,WNW,301,6.0,8.0,81,-99.99,,,-99.99,,2013-02-28 07:01:00,
2013-02-28 02:11:00,54.0,48.0,29.98,NW,307,5.0,8.0,81,-99.99,,,-99.99,,2013-02-28 07:11:00,
2013-02-28 02:22:00,54.0,48.0,29.98,NW,307,5.0,8.0,81,-99.99,,,-99.99,,2013-02-28 07:22:00,
2013-02-28 02:32:00,53.0,48.0,29.98,WNW,294,4.0,5.0,82,-99.99,,,-99.99,,2013-02-28 07:32:00,
2013-02-28 02:42:00,52.0,48.0,29.98,NW,318,5.0,6.0,83,-99.99,,,-99.99,,2013-02-28 07:42:00,
2013-02-28 02:52:00,52.0,47.0,29.97,NW,322,6.0,7.0,84,-99.99,,,-99.99,,2013-02-28 07:52:00,
2013-02-28 03:01:00,52.0,47.0,29.97,NW,322,6.0,7.0,84,-99.99,,,-99.99,,2013-02-28 08:01:00,
2013-02-28 03:11:00,51.0,47.0,29.97,NW,320,6.0,8.0,85,-99.99,,,-99.99,,2013-02-28 08:11:00,
2013-02-28 03:22:00,51.0,47.0,29.97,NW,320,6.0,8.0,85,-99.99,,,-99.99,,2013-02-28 08:22:00,
2013-02-28 03:32:00,51.0,47.0,29.97,NW,320,6.0,8.0,85,-99.99,,,-99.99,,2013-02-28 08:32:00,
2013-02-28 03:42:00,51.0,47.0,29.97,NW,313,5.0,7.0,85,-99.99,,,-99.99,,2013-02-28 08:42:00,
2013-02-28 03:53:00,51.0,47.0,29.96,NW,310,4.0,6.0,85,-99.99,,,-99.99,,2013-02-28 08:53:00,
2013-02-28 04:04:00,50.0,47.0,29.95,NW,314,4.0,5.0,86,-99.99,,,-99.99,,2013-02-28 09:04:00,
2013-02-28 04:12:00,50.0,47.0,29.95,NW,314,4.0,5.0,86,-99.99,,,-99.99,,2013-02-28 09:12:00,
2013-02-28 04:22:00,50.0,47.0,29.95,NW,314,4.0,5.0,86,-99.99,,,-99.99,,2013-02-28 09:22:00,
2013-02-28 04:32:00,50.0,46.0,29.95,NW,317,5.0,6.0,87,-99.99,,,-99.99,,2013-02-28 09:32:00,
2013-02-28 04:42:00,49.0,46.0,29.95,NW,313,4.0,6.0,89,-99.99,,,-99.99,,2013-02-28 09:42:00,
2013-02-28 04:53:00,49.0,46.0,29.95,NW,313,4.0,6.0,89,-99.99,,,-99.99,,2013-02-28 09:53:00,
2013-02-28 05:02:00,49.0,46.0,29.96,NW,307,5.0,7.0,89,-99.99,,,-99.99,,2013-02-28 10:02:00,
2013-02-28 05:12:00,50.0,47.0,29.96,WNW,292,3.0,5.0,89,-99.99,,,-99.99,,2013-02-28 10:12:00,
2013-02-28 05:22:00,50.0,47.0,29.96,WNW,292,3.0,5.0,89,-99.99,,,-99.99,,2013-02-28 10:22:00,
2013-02-28 05:32:00,49.0,46.0,29.96,NW,319,4.0,6.0,89,-99.99,,,-99.99,,2013-02-28 10:32:00,
2013-02-28 05:42:00,48.0,46.0,29.95,NW,324,5.0,6.0,89,-99.99,,,-99.99,,2013-02-28 10:42:00,
2013-02-28 05:52:00,48.0,46.0,29.95,NW,324,5.0,6.0,89,-99.99,,,-99.99,,2013-02-28 10:52:00,
2013-02-28 06:02:00,48.0,45.0,29.97,WNW,293,4.0,6.0,90,-99.99,,,-99.99,,2013-02-28 11:02:00,
2013-02-28 06:11:00,48.0,45.0,29.99,West,260,3.0,4.0,90,-99.99,,,-99.99,,2013-02-28 11:11:00,
2013-02-28 06:22:00,48.0,45.0,29.99,West,260,3.0,4.0,90,-99.99,,,-99.99,,2013-02-28 11:22:00,
2013-02-28 06:32:00,48.0,45.0,29.99,West,260,3.0,4.0,90,-99.99,,,-99.99,,2013-02-28 11:32:00,
2013-02-28 06:42:00,48.0,45.0,29.99,WNW,288,1.0,4.0,91,-99.99,,,-99.99,,2013-02-28 11:42:00,
2013-02-28 06:53:00,48.0,45.0,29.99,WNW,288,1.0,4.0,91,-99.99,,,-99.99,,2013-02-28 11:53:00,
2013-02-28 07:02:00,47.0,45.0,29.98,NNW,329,6.0,8.0,92,-99.99,,,-99.99,,2013-02-28 12:02:00,
2013-02-28 07:12:00,49.0,47.0,29.97,NNW,347,7.0,10.0,92,-99.99,,,-99.99,,2013-02-28 12:12:00,
2013-02-28 07:22:00,49.0,47.0,29.97,NNW,347,7.0,10.0,92,-99.99,,,-99.99,,2013-02-28 12:22:00,
2013-02-28 07:32:00,50.0,47.0,29.98,NW,312,3.0,5.0,91,-99.99,,,-99.99,,2013-02-28 12:32:00,
2013-02-28 07:42:00,50.0,48.0,29.99,WNW,284,2.0,4.0,91,-99.99,,,-99.99,,2013-02-28 12:42:00,
2013-02-28 07:53:00,51.0,48.0,29.99,WNW,296,2.0,4.0,91,-99.99,,,-99.99,,2013-02-28 12:53:00,
2013-02-28 08:02:00,51.0,49.0,30.00,NW,325,3.0,4.0,90,-99.99,,,-99.99,,2013-02-28 13:02:00,
2013-02-28 08:12:00,51.0,49.0,30.00,NW,325,3.0,4.0,90,-99.99,,,-99.99,,2013-02-28 13:12:00,
2013-02-28 08:22:00,51.0,49.0,30.00,NW,325,3.0,4.0,90,-99.99,,,-99.99,,2013-02-28 13:22:00,
2013-02-28 08:32:00,53.0,50.0,30.01,NW,326,3.0,6.0,88,-99.99,,,-99.99,,2013-02-28 13:32:00,
2013-02-28 08:42:00,53.0,50.0,30.01,NW,326,3.0,6.0,88,-99.99,,,-99.99,,2013-02-28 13:42:00,
2013-02-28 08:52:00,55.0,51.0,30.01,NNW,330,4.0,5.0,85,-99.99,,,-99.99,,2013-02-28 13:52:00,
2013-02-28 09:02:00,57.0,51.0,30.02,NW,326,4.0,6.0,80,-99.99,,,-99.99,,2013-02-28 14:02:00,
2013-02-28 09:11:00,57.0,51.0,30.02,NW,326,4.0,6.0,80,-99.99,,,-99.99,,2013-02-28 14:11:00,
2013-02-28 09:22:00,57.0,51.0,30.02,NW,326,4.0,6.0,80,-99.99,,,-99.99,,2013-02-28 14:22:00,
2013-02-28 09:32:00,57.0,51.0,30.02,NW,326,4.0,6.0,80,-99.99,,,-99.99,,2013-02-28 14:32:00,
2013-02-28 09:42:00,61.0,51.0,30.03,NNW,327,7.0,13.0,70,-99.99,,,-99.99,,2013-02-28 14:42:00,
2013-02-28 09:52:00,61.0,51.0,30.03,NNW,327,7.0,13.0,70,-99.99,,,-99.99,,2013-02-28 14:52:00,
2013-02-28 10:02:00,62.0,51.0,30.03,NW,317,5.0,8.0,65,-99.99,,,-99.99,,2013-02-28 15:02:00,
2013-02-28 10:11:00,63.0,50.0,30.04,NW,318,6.0,10.0,63,-99.99,,,-99.99,,2013-02-28 15:11:00,
2013-02-28 10:22:00,63.0,50.0,30.04,NW,318,6.0,10.0,63,-99.99,,,-99.99,,2013-02-28 15:22:00,
2013-02-28 10:32:00,64.0,50.0,30.03,NW,312,6.0,10.0,59,-99.99,,,-99.99,,2013-02-28 15:32:00,
2013-02-28 10:42:00,65.0,48.0,30.03,NW,314,6.0,9.0,53,-99.99,,,-99.99,,2013-02-28 15:42:00,
2013-02-28 10:52:00,65.0,48.0,30.03,NW,314,6.0,9.0,53,-99.99,,,-99.99,,2013-02-28 15:52:00,
2013-02-28 11:02:00,67.0,45.0,30.03,NW,314,7.0,12.0,44,-99.99,,,-99.99,,2013-02-28 16:02:00,
2013-02-28 11:12:00,67.0,45.0,30.03,NW,314,7.0,12.0,44,-99.99,,,-99.99,,2013-02-28 16:12:00,
2013-02-28 11:22:00,67.0,45.0,30.03,NW,314,7.0,12.0,44,-99.99,,,-99.99,,2013-02-28 16:22:00,
2013-02-28 11:32:00,67.0,45.0,30.03,NW,314,7.0,12.0,44,-99.99,,,-99.99,,2013-02-28 16:32:00,
2013-02-28 11:42:00,69.0,44.0,30.02,West,279,7.0,13.0,41,-99.99,,,-99.99,,2013-02-28 16:42:00,
2013-02-28 11:53:00,69.0,44.0,30.02,West,279,7.0,13.0,41,-99.99,,,-99.99,,2013-02-28 16:53:00,
2013-02-28 12:02:00,69.0,42.0,30.02,WNW,300,9.0,13.0,36,-99.99,,,-99.99,,2013-02-28 17:02:00,
2013-02-28 12:12:00,70.0,43.0,30.01,West,271,6.0,12.0,38,-99.99,,,-99.99,,2013-02-28 17:12:00,
2013-02-28 12:22:00,70.0,43.0,30.01,West,271,6.0,12.0,38,-99.99,,,-99.99,,2013-02-28 17:22:00,
2013-02-28 12:32:00,70.0,43.0,30.01,West,271,6.0,12.0,38,-99.99,,,-99.99,,2013-02-28 17:32:00,
2013-02-28 12:42:00,71.0,46.0,29.99,West,275,9.0,15.0,41,-99.99,,,-99.99,,2013-02-28 17:42:00,
2013-02-28 12:53:00,71.0,46.0,29.99,West,275,9.0,15.0,41,-99.99,,,-99.99,,2013-02-28 17:53:00,
2013-02-28 13:02:00,71.0,47.0,29.99,West,260,10.0,18.0,41,-99.99,,,-99.99,,2013-02-28 18:02:00,
2013-02-28 13:12:00,72.0,47.0,29.98,West,259,10.0,16.0,41,-99.99,,,-99.99,,2013-02-28 18:12:00,
2013-02-28 13:22:00,72.0,47.0,29.98,West,259,10.0,16.0,41,-99.99,,,-99.99,,2013-02-28 18:22:00,
2013-02-28 13:32:00,72.0,47.0,29.98,West,270,9.0,16.0,41,-99.99,,,-99.99,,2013-02-28 18:32:00,
2013-02-28 13:42:00,73.0,47.0,29.97,West,274,11.0,19.0,39,-99.99,,,-99.99,,2013-02-28 18:42:00,
2013-02-28 13:52:00,73.0,47.0,29.97,West,274,11.0,19.0,39,-99.99,,,-99.99,,2013-02-28 18:52:00,
2013-02-28 14:02:00,73.0,47.0,29.96,West,273,10.0,19.0,39,-99.99,,,-99.99,,2013-02-28 19:02:00,
2013-02-28 14:12:00,74.0,47.0,29.95,West,275,11.0,16.0,39,-99.99,,,-99.99,,2013-02-28 19:12:00,
2013-02-28 14:22:00,74.0,47.0,29.95,West,275,11.0,16.0,39,-99.99,,,-99.99,,2013-02-28 19:22:00,
2013-02-28 14:32:00,74.0,47.0,29.94,West,267,9.0,17.0,38,-99.99,,,-99.99,,2013-02-28 19:32:00,
2013-02-28 14:42:00,75.0,48.0,29.93,West,259,10.0,18.0,38,-99.99,,,-99.99,,2013-02-28 19:42:00,
2013-02-28 14:52:00,75.0,48.0,29.93,West,259,10.0,18.0,38,-99.99,,,-99.99,,2013-02-28 19:52:00,
2013-02-28 15:01:00,75.0,48.0,29.93,WSW,254,11.0,18.0,38,-99.99,,,-99.99,,2013-02-28 20:01:00,
2013-02-28 15:12:00,75.0,47.0,29.93,WSW,258,10.0,16.0,37,-99.99,,,-99.99,,2013-02-28 20:12:00,
2013-02-28 15:22:00,75.0,47.0,29.93,WSW,258,10.0,16.0,37,-99.99,,,-99.99,,2013-02-28 20:22:00,
2013-02-28 15:32:00,75.0,47.0,29.93,WSW,258,10.0,16.0,37,-99.99,,,-99.99,,2013-02-28 20:32:00,
2013-02-28 15:42:00,74.0,46.0,29.93,West,276,13.0,18.0,38,-99.99,,,-99.99,,2013-02-28 20:42:00,
2013-02-28 15:52:00,74.0,46.0,29.93,West,276,13.0,18.0,38,-99.99,,,-99.99,,2013-02-28 20:52:00,
2013-02-28 16:02:00,75.0,46.0,29.92,West,270,14.0,21.0,36,-99.99,,,-99.99,,2013-02-28 21:02:00,
2013-02-28 16:11:00,75.0,46.0,29.92,West,272,12.0,19.0,35,-99.99,,,-99.99,,2013-02-28 21:11:00,
2013-02-28 16:22:00,75.0,46.0,29.92,West,272,12.0,19.0,35,-99.99,,,-99.99,,2013-02-28 21:22:00,
2013-02-28 16:32:00,75.0,45.0,29.91,West,260,13.0,19.0,35,-99.99,,,-99.99,,2013-02-28 21:32:00,
2013-02-28 16:42:00,74.0,45.0,29.91,West,279,13.0,20.0,35,-99.99,,,-99.99,,2013-02-28 21:42:00,
2013-02-28 16:52:00,74.0,45.0,29.91,West,279,13.0,20.0,35,-99.99,,,-99.99,,2013-02-28 21:52:00,
2013-02-28 17:02:00,74.0,44.0,29.91,West,266,14.0,22.0,34,-99.99,,,-99.99,,2013-02-28 22:02:00,
2013-02-28 17:11:00,73.0,43.0,29.91,West,268,14.0,20.0,34,-99.99,,,-99.99,,2013-02-28 22:11:00,
2013-02-28 17:22:00,73.0,43.0,29.91,West,268,14.0,20.0,34,-99.99,,,-99.99,,2013-02-28 22:22:00,
2013-02-28 17:32:00,72.0,42.0,29.91,West,270,13.0,18.0,33,-99.99,,,-99.99,,2013-02-28 22:32:00,
2013-02-28 17:42:00,72.0,41.0,29.92,West,280,11.0,20.0,33,-99.99,,,-99.99,,2013-02-28 22:42:00,
2013-02-28 17:52:00,72.0,41.0,29.92,West,280,11.0,20.0,33,-99.99,,,-99.99,,2013-02-28 22:52:00,
2013-02-28 18:02:00,71.0,41.0,29.92,WNW,291,11.0,19.0,34,-99.99,,,-99.99,,2013-02-28 23:02:00,
2013-02-28 18:11:00,70.0,40.0,29.92,WNW,290,11.0,17.0,34,-99.99,,,-99.99,,2013-02-28 23:11:00,
2013-02-28 18:22:00,70.0,40.0,29.92,WNW,290,11.0,17.0,34,-99.99,,,-99.99,,2013-02-28 23:22:00,
2013-02-28 18:32:00,70.0,40.0,29.92,WNW,290,11.0,17.0,34,-99.99,,,-99.99,,2013-02-28 23:32:00,
2013-02-28 18:42:00,67.0,41.0,29.93,WNW,291,9.0,14.0,38,-99.99,,,-99.99,,2013-02-28 23:42:00,
2013-02-28 18:53:00,67.0,41.0,29.93,WNW,291,9.0,14.0,38,-99.99,,,-99.99,,2013-02-28 23:53:00,
2013-02-28 19:02:00,67.0,42.0,29.94,WNW,291,8.0,13.0,40,-99.99,,,-99.99,,2013-03-01 00:02:00,
2013-02-28 19:11:00,65.0,42.0,29.94,WNW,293,8.0,10.0,42,-99.99,,,-99.99,,2013-03-01 00:11:00,
2013-02-28 19:22:00,65.0,42.0,29.94,WNW,293,8.0,10.0,42,-99.99,,,-99.99,,2013-03-01 00:22:00,
2013-02-28 19:32:00,65.0,43.0,29.94,WNW,291,7.0,11.0,44,-99.99,,,-99.99,,2013-03-01 00:32:00,
2013-02-28 19:42:00,65.0,44.0,29.94,WNW,284,7.0,12.0,46,-99.99,,,-99.99,,2013-03-01 00:42:00,
2013-02-28 19:52:00,65.0,44.0,29.94,WNW,284,7.0,12.0,46,-99.99,,,-99.99,,2013-03-01 00:52:00,
2013-02-28 20:01:00,64.0,44.0,29.95,WNW,289,6.0,11.0,48,-99.99,,,-99.99,,2013-03-01 01:01:00,
2013-02-28 20:11:00,64.0,45.0,29.95,WNW,291,6.0,9.0,50,-99.99,,,-99.99,,2013-03-01 01:11:00,
2013-02-28 20:22:00,64.0,45.0,29.95,WNW,291,6.0,9.0,50,-99.99,,,-99.99,,2013-03-01 01:22:00,
2013-02-28 20:32:00,63.0,45.0,29.96,WNW,292,6.0,8.0,51,-99.99,,,-99.99,,2013-03-01 01:32:00,
2013-02-28 20:42:00,62.0,45.0,29.96,WNW,302,8.0,11.0,53,-99.99,,,-99.99,,2013-03-01 01:42:00,
2013-02-28 20:52:00,62.0,45.0,29.96,WNW,302,8.0,11.0,53,-99.99,,,-99.99,,2013-03-01 01:52:00,
2013-02-28 21:01:00,61.0,45.0,29.96,WNW,303,8.0,11.0,55,-99.99,,,-99.99,,2013-03-01 02:01:00,
2013-02-28 21:11:00,60.0,46.0,29.96,WNW,290,6.0,7.0,57,-99.99,,,-99.99,,2013-03-01 02:11:00,
2013-02-28 21:22:00,60.0,46.0,29.96,WNW,290,6.0,7.0,57,-99.99,,,-99.99,,2013-03-01 02:22:00,
2013-02-28 21:32:00,60.0,46.0,29.96,WNW,290,6.0,7.0,57,-99.99,,,-99.99,,2013-03-01 02:32:00,
2013-02-28 21:42:00,59.0,47.0,29.97,WNW,298,7.0,11.0,63,-99.99,,,-99.99,,2013-03-01 02:42:00,
2013-02-28 21:52:00,59.0,47.0,29.97,WNW,298,7.0,11.0,63,-99.99,,,-99.99,,2013-03-01 02:52:00,
2013-02-28 22:02:00,58.0,48.0,29.97,WNW,301,6.0,9.0,67,-99.99,,,-99.99,,2013-03-01 03:02:00,
2013-02-28 22:12:00,57.0,48.0,29.97,WNW,300,6.0,8.0,70,-99.99,,,-99.99,,2013-03-01 03:12:00,
2013-02-28 22:22:00,57.0,48.0,29.97,WNW,300,6.0,8.0,70,-99.99,,,-99.99,,2013-03-01 03:22:00,
2013-02-28 22:32:00,57.0,48.0,29.97,WNW,297,6.0,9.0,70,-99.99,,,-99.99,,2013-03-01 03:32:00,
2013-02-28 22:42:00,56.0,48.0,29.97,WNW,289,5.0,10.0,71,-99.99,,,-99.99,,2013-03-01 03:42:00,
2013-02-28 22:52:00,56.0,48.0,29.97,WNW,289,5.0,10.0,71,-99.99,,,-99.99,,2013-03-01 03:52:00,
2013-02-28 23:02:00,55.0,47.0,29.97,WNW,291,5.0,8.0,74,-99.99,,,-99.99,,2013-03-01 04:02:00,
2013-02-28 23:12:00,55.0,47.0,29.98,WNW,290,5.0,7.0,75,-99.99,,,-99.99,,2013-03-01 04:12:00,
2013-02-28 23:22:00,55.0,47.0,29.98,WNW,290,5.0,7.0,75,-99.99,,,-99.99,,2013-03-01 04:22:00,
2013-02-28 23:32:00,54.0,47.0,29.97,WNW,289,5.0,8.0,76,-99.99,,,-99.99,,2013-03-01 04:32:00,
2013-02-28 23:42:00,55.0,48.0,29.97,WNW,287,6.0,7.0,77,-99.99,,,-99.99,,2013-03-01 04:42:00,
2013-02-28 23:52:00,55.0,48.0,29.97,WNW,287,6.0,7.0,77,-99.99,,,-99.99,,2013-03-01 04:52:00,